Time;durP1;ratioP1;P1;durP2;ratioP2;P2;SDS_P1;SDS_P2;PMS_P1;PMS_P2;Temp;Humidity;BMP_temperature;BMP_pressure;BME280_temperature;BME280_humidity;BME280_pressure;Samples;Min_cycle;Max_cycle;Signal;HPM_P1;HPM_P2
2023/12/12 00:00:09;;;;;;;24.63;12.73;;;6.80;99.90;;;;;;4991627;28;20197;-53
2023/12/12 00:02:43;;;;;;;27.53;13.43;;;6.80;99.90;;;;;;5005203;28;20196;-54
2023/12/12 00:05:09;;;;;;;23.60;12.50;;;6.80;99.90;;;;;;5000829;28;20923;-55
2023/12/12 00:07:36;;;;;;;28.47;13.13;;;6.80;99.90;;;;;;5003695;28;20224;-53
2023/12/12 00:10:04;;;;;;;23.13;12.60;;;6.80;99.90;;;;;;4988380;28;20223;-55
2023/12/12 00:12:31;;;;;;;26.87;13.27;;;6.80;99.90;;;;;;4958235;28;20216;-54
2023/12/12 00:14:58;;;;;;;30.97;13.30;;;6.80;99.90;;;;;;5002297;28;20197;-55
2023/12/12 00:17:25;;;;;;;25.33;12.07;;;6.80;99.90;;;;;;4999442;28;20209;-60
2023/12/12 00:19:53;;;;;;;30.50;12.47;;;6.80;99.90;;;;;;5002779;28;20292;-57
2023/12/12 00:22:20;;;;;;;24.87;12.63;;;6.70;99.90;;;;;;5001241;28;20743;-58
2023/12/12 00:24:47;;;;;;;28.00;13.43;;;6.80;99.90;;;;;;5003301;28;20208;-54
2023/12/12 00:27:14;;;;;;;24.00;12.83;;;6.70;99.90;;;;;;4962268;28;20221;-61
2023/12/12 00:29:40;;;;;;;26.10;13.13;;;6.70;99.90;;;;;;4993636;28;20950;-53
2023/12/12 00:32:08;;;;;;;30.50;13.90;;;6.70;99.90;;;;;;5001238;28;20205;-60
2023/12/12 00:34:36;;;;;;;28.70;13.77;;;6.70;99.90;;;;;;4993393;28;20958;-52
2023/12/12 00:37:05;;;;;;;28.40;13.43;;;6.70;99.90;;;;;;5003517;28;20208;-55
2023/12/12 00:39:37;;;;;;;28.67;13.07;;;6.60;99.90;;;;;;4996831;28;20286;-52
2023/12/12 00:42:04;;;;;;;27.90;13.30;;;6.60;99.90;;;;;;4985497;28;20262;-61
2023/12/12 00:44:31;;;;;;;28.57;14.77;;;6.50;99.90;;;;;;4982690;28;20251;-50
2023/12/12 00:46:58;;;;;;;24.67;12.13;;;6.50;99.90;;;;;;5003238;28;20355;-60
2023/12/12 00:49:25;;;;;;;24.33;12.67;;;6.50;99.90;;;;;;4997863;28;20254;-56
2023/12/12 00:51:51;;;;;;;24.90;11.73;;;6.60;99.90;;;;;;4996506;28;20201;-51
2023/12/12 00:54:20;;;;;;;24.63;13.10;;;6.60;99.90;;;;;;4997636;28;20213;-54
2023/12/12 00:56:47;;;;;;;25.37;12.67;;;6.50;99.90;;;;;;5001318;28;20209;-57
2023/12/12 00:59:14;;;;;;;28.07;14.00;;;6.50;99.90;;;;;;4957303;28;20411;-50
2023/12/12 01:01:41;;;;;;;25.37;12.93;;;6.50;99.90;;;;;;5003450;28;20200;-55
2023/12/12 01:04:08;;;;;;;23.17;11.93;;;6.50;99.90;;;;;;4998593;28;20247;-59
2023/12/12 01:06:35;;;;;;;24.63;13.43;;;6.50;99.90;;;;;;5003256;28;20700;-53
2023/12/12 01:09:02;;;;;;;28.30;13.43;;;6.60;99.90;;;;;;5000729;28;20220;-60
2023/12/12 01:11:30;;;;;;;31.80;13.93;;;6.50;99.90;;;;;;5000992;28;20200;-50
2023/12/12 01:13:57;;;;;;;22.33;12.50;;;6.60;99.90;;;;;;4966895;28;20710;-61
2023/12/12 01:16:24;;;;;;;33.87;13.90;;;6.60;99.90;;;;;;4993843;28;20306;-53
2023/12/12 01:18:51;;;;;;;24.23;12.27;;;6.60;99.90;;;;;;5001579;28;20207;-55
2023/12/12 01:21:18;;;;;;;23.33;12.20;;;6.60;99.90;;;;;;4998891;28;21511;-53
2023/12/12 01:23:51;;;;;;;26.10;13.10;;;6.60;99.90;;;;;;5002963;28;20330;-54
2023/12/12 01:26:20;;;;;;;25.97;11.57;;;6.50;99.90;;;;;;4998937;28;20212;-54
2023/12/12 01:28:49;;;;;;;26.00;12.33;;;6.60;99.90;;;;;;5001508;28;20671;-56
2023/12/12 01:31:16;;;;;;;24.03;11.33;;;6.50;99.90;;;;;;4960129;28;20205;-55
2023/12/12 01:33:43;;;;;;;25.23;12.73;;;6.50;99.90;;;;;;5003483;28;20284;-53
2023/12/12 01:36:10;;;;;;;23.50;11.93;;;6.50;99.90;;;;;;5000096;28;20201;-61
2023/12/12 01:38:37;;;;;;;26.80;12.97;;;6.50;99.90;;;;;;5002965;28;20220;-50
2023/12/12 01:41:04;;;;;;;22.73;12.50;;;6.60;99.90;;;;;;4998560;28;20266;-57
2023/12/12 01:43:32;;;;;;;24.40;12.30;;;6.50;99.90;;;;;;5000283;28;20247;-51
2023/12/12 01:46:03;;;;;;;27.80;12.77;;;6.50;99.90;;;;;;4971856;28;20570;-60
2023/12/12 01:48:31;;;;;;;23.07;12.20;;;6.50;99.90;;;;;;5000728;28;20220;-56
2023/12/12 01:50:58;;;;;;;28.23;12.30;;;6.50;99.90;;;;;;5001913;28;20274;-59
2023/12/12 01:53:28;;;;;;;24.10;12.43;;;6.50;99.90;;;;;;4999879;28;20196;-56
2023/12/12 01:55:56;;;;;;;19.50;11.07;;;6.50;99.90;;;;;;5002542;28;20517;-59
2023/12/12 01:58:25;;;;;;;25.60;11.70;;;6.50;99.90;;;;;;4999729;28;20200;-54
2023/12/12 02:00:53;;;;;;;28.40;12.50;;;6.50;99.90;;;;;;4999332;28;20270;-55
2023/12/12 02:03:23;;;;;;;23.87;11.87;;;6.50;99.90;;;;;;4966892;28;20255;-54
2023/12/12 02:05:51;;;;;;;25.33;12.23;;;6.60;99.90;;;;;;4995957;28;20660;-53
2023/12/12 02:08:18;;;;;;;24.87;11.27;;;6.60;99.90;;;;;;4989120;28;20798;-57
2023/12/12 02:10:45;;;;;;;40.80;12.67;;;6.60;99.90;;;;;;4993066;28;20255;-54
2023/12/12 02:13:12;;;;;;;39.37;11.40;;;6.60;99.90;;;;;;4991136;28;20375;-60
2023/12/12 02:15:39;;;;;;;108.87;14.63;;;6.50;99.90;;;;;;4995874;28;20241;-52
2023/12/12 02:18:06;;;;;;;46.43;11.73;;;6.40;99.90;;;;;;4965295;28;20308;-58
2023/12/12 02:20:35;;;;;;;51.23;11.67;;;6.40;99.90;;;;;;4985095;28;20211;-60
2023/12/12 02:23:03;;;;;;;44.07;11.20;;;6.40;99.90;;;;;;4993280;28;20209;-54
2023/12/12 02:25:30;;;;;;;40.10;11.13;;;6.40;99.90;;;;;;4997646;28;20185;-59
2023/12/12 02:27:58;;;;;;;41.40;11.17;;;6.40;99.90;;;;;;4993379;28;20869;-58
2023/12/12 02:30:25;;;;;;;50.73;11.60;;;6.40;99.90;;;;;;4998881;28;20200;-53
2023/12/12 02:32:52;;;;;;;56.33;11.97;;;6.40;99.90;;;;;;4963235;28;20310;-51
2023/12/12 02:35:19;;;;;;;54.43;12.47;;;6.40;99.90;;;;;;4993521;28;20259;-59
2023/12/12 02:37:46;;;;;;;67.87;11.67;;;6.30;99.90;;;;;;4997907;28;20212;-51
2023/12/12 02:40:14;;;;;;;93.00;12.70;;;6.30;99.90;;;;;;5000937;28;20205;-58
2023/12/12 02:42:44;;;;;;;71.77;11.40;;;6.30;99.90;;;;;;4998730;28;20714;-55
2023/12/12 02:45:11;;;;;;;51.57;11.43;;;6.30;99.90;;;;;;5001354;28;20204;-60
2023/12/12 02:47:38;;;;;;;57.50;12.67;;;6.30;99.90;;;;;;4967411;28;20225;-52
2023/12/12 02:50:06;;;;;;;65.07;12.40;;;6.30;99.90;;;;;;4993700;28;20196;-54
2023/12/12 02:52:33;;;;;;;33.07;12.07;;;6.20;99.90;;;;;;4992720;28;20192;-54
2023/12/12 02:54:59;;;;;;;39.20;12.73;;;6.20;99.90;;;;;;4996227;28;20255;-56
2023/12/12 02:57:27;;;;;;;57.30;12.97;;;6.20;99.90;;;;;;4991809;28;20200;-58
2023/12/12 02:59:54;;;;;;;30.33;12.47;;;6.20;99.90;;;;;;4996801;28;20502;-54
2023/12/12 03:02:21;;;;;;;34.33;11.93;;;6.20;99.90;;;;;;4971893;28;20243;-61
2023/12/12 03:04:48;;;;;;;34.37;11.43;;;6.30;99.90;;;;;;4990792;28;20291;-52
2023/12/12 03:07:15;;;;;;;48.07;13.40;;;6.30;99.90;;;;;;4993071;28;20275;-59
2023/12/12 03:09:41;;;;;;;41.13;12.87;;;6.30;99.90;;;;;;4994235;28;20983;-53
2023/12/12 03:12:08;;;;;;;37.27;13.80;;;6.30;99.90;;;;;;4993375;28;20613;-58
2023/12/12 03:14:37;;;;;;;33.70;12.77;;;6.20;99.90;;;;;;4996589;28;20914;-52
2023/12/12 03:17:04;;;;;;;32.60;13.10;;;6.20;99.90;;;;;;5001204;28;20703;-53
2023/12/12 03:19:32;;;;;;;32.83;12.73;;;6.20;99.90;;;;;;4963301;28;20252;-50
2023/12/12 03:21:59;;;;;;;34.10;12.73;;;6.30;99.90;;;;;;4995845;28;20247;-54
2023/12/12 03:24:26;;;;;;;31.13;13.10;;;6.30;99.90;;;;;;4993456;28;20205;-59
2023/12/12 03:26:53;;;;;;;31.73;12.67;;;6.30;99.90;;;;;;4996796;28;20224;-52
2023/12/12 03:29:20;;;;;;;33.00;11.73;;;6.30;99.90;;;;;;4994406;28;20679;-59
2023/12/12 03:31:48;;;;;;;39.27;12.47;;;6.30;99.90;;;;;;4997025;28;20609;-57
2023/12/12 03:34:15;;;;;;;39.60;13.30;;;6.30;99.90;;;;;;4964753;28;20212;-60
2023/12/12 03:36:43;;;;;;;31.90;12.30;;;6.40;99.90;;;;;;4997009;28;20213;-50
2023/12/12 03:39:10;;;;;;;40.97;12.47;;;6.40;99.90;;;;;;4997052;28;20240;-58
2023/12/12 03:41:37;;;;;;;42.93;13.10;;;6.40;99.90;;;;;;4994970;28;20492;-56
2023/12/12 03:44:04;;;;;;;33.97;14.33;;;6.40;99.90;;;;;;4997271;28;20258;-51
2023/12/12 03:46:31;;;;;;;40.33;13.13;;;6.40;99.90;;;;;;4996279;28;20251;-52
2023/12/12 03:48:59;;;;;;;32.40;12.10;;;6.40;99.90;;;;;;5000299;28;20314;-54
2023/12/12 03:51:26;;;;;;;35.30;13.70;;;6.40;99.90;;;;;;4952081;28;20245;-60
2023/12/12 03:53:53;;;;;;;35.63;13.87;;;6.30;99.90;;;;;;5001934;28;20276;-57
2023/12/12 03:56:20;;;;;;;34.03;13.10;;;6.30;99.90;;;;;;5001902;28;20207;-59
2023/12/12 03:58:47;;;;;;;33.83;13.17;;;6.30;99.90;;;;;;5004470;28;20192;-51
2023/12/12 04:01:14;;;;;;;35.23;13.30;;;6.40;99.90;;;;;;4991931;28;20204;-60
2023/12/12 04:03:41;;;;;;;38.73;14.63;;;6.30;99.90;;;;;;5002823;28;20193;-52
2023/12/12 04:06:10;;;;;;;34.90;13.57;;;6.30;99.90;;;;;;4972479;28;20271;-60
2023/12/12 04:08:37;;;;;;;34.50;14.67;;;6.40;99.90;;;;;;4996236;28;20212;-53
2023/12/12 04:11:04;;;;;;;31.10;13.53;;;6.40;99.90;;;;;;5003643;28;20262;-55
2023/12/12 04:13:31;;;;;;;37.57;14.03;;;6.30;99.90;;;;;;5001215;28;20196;-51
2023/12/12 04:15:58;;;;;;;35.73;13.80;;;6.30;99.90;;;;;;5004812;28;20208;-52
2023/12/12 04:18:24;;;;;;;44.87;13.90;;;6.40;99.90;;;;;;5000086;28;20212;-58
2023/12/12 04:20:51;;;;;;;32.13;14.07;;;6.40;99.90;;;;;;4968993;28;20204;-54
2023/12/12 04:23:19;;;;;;;31.97;12.23;;;6.40;99.90;;;;;;4989949;28;20213;-60
2023/12/12 04:25:46;;;;;;;37.13;14.60;;;6.40;99.90;;;;;;5004619;28;20262;-53
2023/12/12 04:28:13;;;;;;;35.50;13.20;;;6.40;99.90;;;;;;5000380;28;20302;-61
2023/12/12 04:30:40;;;;;;;33.87;13.93;;;6.40;99.90;;;;;;4992527;28;20201;-56
2023/12/12 04:33:07;;;;;;;27.37;12.57;;;6.40;99.90;;;;;;4999562;28;20204;-57
2023/12/12 04:35:34;;;;;;;33.33;13.63;;;6.40;99.90;;;;;;4967799;28;20213;-57
2023/12/12 04:38:01;;;;;;;28.83;13.00;;;6.40;99.90;;;;;;4997458;28;20290;-52
2023/12/12 04:40:29;;;;;;;31.10;13.00;;;6.40;99.90;;;;;;4998779;28;20209;-54
2023/12/12 04:42:56;;;;;;;34.07;13.40;;;6.40;99.90;;;;;;4993986;28;20592;-54
2023/12/12 04:45:23;;;;;;;32.43;13.77;;;6.30;99.90;;;;;;4998444;28;20334;-58
2023/12/12 04:47:50;;;;;;;27.67;11.83;;;6.40;99.90;;;;;;4995517;28;20220;-50
2023/12/12 04:50:17;;;;;;;37.50;12.80;;;6.40;99.90;;;;;;4996168;28;20228;-60
2023/12/12 04:52:43;;;;;;;30.00;13.10;;;6.40;99.90;;;;;;4974004;28;20196;-53
2023/12/12 04:55:11;;;;;;;27.80;12.27;;;6.30;99.90;;;;;;4994407;28;20208;-59
2023/12/12 04:57:39;;;;;;;35.70;13.80;;;6.30;99.90;;;;;;5000762;28;20275;-51
2023/12/12 05:00:13;;;;;;;34.63;13.87;;;6.30;99.90;;;;;;5003104;28;20196;-57
2023/12/12 05:02:40;;;;;;;33.20;14.30;;;6.20;99.90;;;;;;4989427;28;20210;-51
2023/12/12 05:05:08;;;;;;;31.47;12.90;;;6.30;99.90;;;;;;5002024;28;20660;-57
2023/12/12 05:07:35;;;;;;;30.33;13.00;;;6.30;99.90;;;;;;4960185;28;20227;-54
2023/12/12 05:10:01;;;;;;;28.83;13.30;;;6.30;99.90;;;;;;4991067;28;20259;-54
2023/12/12 05:12:28;;;;;;;36.83;13.63;;;6.30;99.90;;;;;;5004930;28;20209;-50
2023/12/12 05:14:56;;;;;;;28.93;13.17;;;6.40;99.90;;;;;;4985374;28;20562;-60
2023/12/12 05:17:23;;;;;;;31.97;13.00;;;6.40;99.90;;;;;;5002030;28;20726;-53
2023/12/12 05:19:50;;;;;;;34.37;13.77;;;6.30;99.90;;;;;;4995404;28;20200;-58
2023/12/12 05:22:17;;;;;;;31.20;12.23;;;6.30;99.90;;;;;;4972260;28;20212;-50
2023/12/12 05:24:44;;;;;;;30.70;12.93;;;6.40;99.90;;;;;;5003200;28;20220;-60
2023/12/12 05:27:11;;;;;;;31.37;13.07;;;6.40;99.90;;;;;;4987115;28;20291;-52
2023/12/12 05:29:37;;;;;;;31.80;13.27;;;6.40;99.90;;;;;;4995344;28;20564;-53
2023/12/12 05:32:07;;;;;;;30.30;13.63;;;6.30;99.90;;;;;;4997720;28;20254;-51
2023/12/12 05:34:34;;;;;;;28.30;13.47;;;6.40;99.90;;;;;;4995092;28;20757;-52
2023/12/12 05:37:01;;;;;;;33.63;12.97;;;6.40;99.90;;;;;;4998301;28;20255;-51
2023/12/12 05:39:28;;;;;;;31.53;13.80;;;6.30;99.90;;;;;;4973699;28;20215;-54
2023/12/12 05:41:55;;;;;;;32.90;13.20;;;6.40;99.90;;;;;;4993183;28;20200;-60
2023/12/12 05:44:22;;;;;;;31.30;14.20;;;6.30;99.90;;;;;;4999418;28;20208;-56
2023/12/12 05:46:51;;;;;;;32.03;13.43;;;6.30;99.90;;;;;;4993149;28;20618;-59
2023/12/12 05:49:21;;;;;;;31.77;13.23;;;6.30;99.90;;;;;;4991880;28;20223;-55
2023/12/12 05:51:48;;;;;;;28.97;13.03;;;6.20;99.90;;;;;;5000780;28;20193;-59
2023/12/12 05:54:15;;;;;;;30.37;13.63;;;6.20;99.90;;;;;;4962608;28;20211;-50
2023/12/12 05:56:43;;;;;;;36.23;14.87;;;6.30;99.90;;;;;;4999967;28;20220;-58
2023/12/12 05:59:14;;;;;;;38.07;13.77;;;6.20;99.90;;;;;;4990457;28;20204;-55
2023/12/12 06:01:41;;;;;;;32.23;14.57;;;6.20;99.90;;;;;;4994699;28;20617;-52
2023/12/12 06:04:08;;;;;;;35.03;15.23;;;6.20;99.90;;;;;;4984770;28;20927;-54
2023/12/12 06:06:42;;;;;;;36.17;14.13;;;6.20;99.90;;;;;;4999777;28;20202;-49
2023/12/12 06:09:09;;;;;;;41.30;14.57;;;6.20;99.90;;;;;;4964868;28;20204;-57
2023/12/12 06:11:36;;;;;;;41.50;16.40;;;6.30;99.90;;;;;;5000016;28;20270;-52
2023/12/12 06:14:03;;;;;;;36.03;14.70;;;6.20;99.90;;;;;;4986613;28;20200;-52
2023/12/12 06:16:31;;;;;;;44.73;14.93;;;6.20;99.90;;;;;;4987970;28;20200;-52
2023/12/12 06:18:58;;;;;;;43.17;15.87;;;6.20;99.90;;;;;;4996850;28;20199;-60
2023/12/12 06:21:24;;;;;;;40.23;15.40;;;6.30;99.90;;;;;;5000391;28;20204;-51
2023/12/12 06:23:53;;;;;;;36.80;14.97;;;6.20;99.90;;;;;;4981459;28;20224;-60
2023/12/12 06:26:19;;;;;;;37.40;15.03;;;6.30;99.90;;;;;;4990626;28;20193;-54
2023/12/12 06:28:46;;;;;;;47.63;15.90;;;6.30;99.90;;;;;;4989873;28;20217;-51
2023/12/12 06:31:13;;;;;;;42.97;14.57;;;6.30;99.90;;;;;;5000495;28;20715;-56
2023/12/12 06:33:40;;;;;;;37.30;15.63;;;6.30;99.90;;;;;;4985069;28;20267;-55
2023/12/12 06:36:09;;;;;;;52.33;16.30;;;6.30;99.90;;;;;;4998536;28;20205;-52
2023/12/12 06:38:36;;;;;;;49.23;16.27;;;6.30;99.90;;;;;;4996121;28;20209;-52
2023/12/12 06:41:04;;;;;;;54.97;17.47;;;6.30;99.90;;;;;;4970740;28;20718;-54
2023/12/12 06:43:31;;;;;;;51.90;16.37;;;6.20;99.90;;;;;;4997330;28;20221;-60
2023/12/12 06:45:58;;;;;;;44.27;16.87;;;6.20;99.90;;;;;;5001492;28;20263;-54
2023/12/12 06:48:25;;;;;;;42.77;16.47;;;6.30;99.90;;;;;;4997523;28;20525;-61
2023/12/12 06:50:52;;;;;;;42.40;16.00;;;6.30;99.90;;;;;;4994823;28;20188;-55
2023/12/12 06:53:19;;;;;;;45.27;16.40;;;6.30;99.90;;;;;;4997756;28;20205;-60
2023/12/12 06:55:47;;;;;;;36.70;15.10;;;6.30;99.90;;;;;;4961252;28;20197;-52
2023/12/12 06:58:16;;;;;;;44.87;16.40;;;6.30;99.90;;;;;;4999128;28;20229;-54
2023/12/12 07:00:43;;;;;;;44.63;16.23;;;6.30;99.90;;;;;;4997036;28;20185;-51
2023/12/12 07:03:10;;;;;;;40.83;16.70;;;6.30;99.90;;;;;;4998235;28;20617;-52
2023/12/12 07:05:37;;;;;;;43.43;16.17;;;6.20;99.90;;;;;;4994685;28;20208;-50
2023/12/12 07:08:05;;;;;;;45.30;15.87;;;6.20;99.90;;;;;;5001622;28;20233;-55
2023/12/12 07:10:33;;;;;;;40.03;15.83;;;6.30;99.90;;;;;;4969751;28;20193;-61
2023/12/12 07:13:00;;;;;;;36.67;14.83;;;6.30;99.90;;;;;;4997243;28;20204;-55
2023/12/12 07:15:28;;;;;;;36.80;14.93;;;6.30;99.90;;;;;;4996377;28;20193;-59
2023/12/12 07:17:55;;;;;;;42.60;14.53;;;6.30;99.90;;;;;;5000603;28;20236;-51
2023/12/12 07:20:22;;;;;;;30.00;13.47;;;6.20;99.90;;;;;;4997222;28;20271;-60
2023/12/12 07:22:50;;;;;;;29.53;12.20;;;6.30;99.90;;;;;;4990876;28;20292;-57
2023/12/12 07:25:17;;;;;;;32.23;13.07;;;6.20;99.90;;;;;;4993628;28;21460;-61
2023/12/12 07:27:44;;;;;;;33.57;12.77;;;6.30;99.90;;;;;;4977011;28;20256;-50
2023/12/12 07:30:12;;;;;;;27.53;10.97;;;6.30;99.90;;;;;;5002387;28;20220;-55
2023/12/12 07:32:40;;;;;;;18.47;9.33;;;6.20;99.90;;;;;;4989472;28;20200;-57
2023/12/12 07:35:08;;;;;;;24.90;10.67;;;6.20;99.90;;;;;;4999001;28;20256;-54
2023/12/12 07:37:35;;;;;;;21.37;9.83;;;6.20;99.90;;;;;;5000592;28;20219;-55
2023/12/12 07:40:03;;;;;;;21.10;9.00;;;6.20;99.90;;;;;;5003079;28;20667;-51
2023/12/12 07:42:30;;;;;;;16.83;8.57;;;6.20;99.90;;;;;;4969020;28;20655;-59
2023/12/12 07:44:57;;;;;;;15.83;9.23;;;6.20;99.90;;;;;;5000242;28;20193;-53
2023/12/12 07:47:24;;;;;;;18.87;8.37;;;6.20;99.90;;;;;;4992879;28;20564;-60
2023/12/12 07:49:53;;;;;;;24.57;9.17;;;6.20;99.90;;;;;;4996389;28;20216;-61
2023/12/12 07:52:20;;;;;;;22.73;8.87;;;6.20;99.90;;;;;;4992517;28;20289;-53
2023/12/12 07:54:47;;;;;;;20.20;9.43;;;6.20;99.90;;;;;;5004743;28;20255;-60
2023/12/12 07:57:14;;;;;;;20.80;9.93;;;6.20;99.90;;;;;;4959875;28;20303;-51
2023/12/12 07:59:41;;;;;;;19.27;9.67;;;6.20;99.90;;;;;;4993403;28;20272;-56
2023/12/12 08:02:08;;;;;;;22.13;9.70;;;6.10;99.90;;;;;;4993170;28;20953;-55
2023/12/12 08:04:35;;;;;;;21.97;9.63;;;6.20;99.90;;;;;;4999658;28;20197;-55
2023/12/12 08:07:04;;;;;;;20.30;9.63;;;6.10;99.90;;;;;;4994971;28;20228;-61
2023/12/12 08:09:31;;;;;;;18.93;9.93;;;6.10;99.90;;;;;;5001322;28;20659;-50
2023/12/12 08:11:58;;;;;;;17.47;9.43;;;6.10;99.90;;;;;;4968607;28;20274;-61
2023/12/12 08:14:26;;;;;;;22.73;9.87;;;6.10;99.90;;;;;;4996362;28;20211;-53
2023/12/12 08:16:54;;;;;;;23.03;10.47;;;6.20;99.90;;;;;;4996853;28;20302;-60
2023/12/12 08:19:21;;;;;;;22.87;9.53;;;6.20;99.90;;;;;;4997218;28;20201;-50
2023/12/12 08:21:48;;;;;;;21.80;9.57;;;6.20;99.90;;;;;;5001031;28;20284;-61
2023/12/12 08:24:16;;;;;;;22.43;9.47;;;6.20;99.90;;;;;;4996357;28;20288;-53
2023/12/12 08:26:44;;;;;;;21.93;9.93;;;6.20;99.90;;;;;;4988979;28;20358;-54
2023/12/12 08:29:11;;;;;;;26.83;10.53;;;6.20;99.90;;;;;;4971683;28;20209;-53
2023/12/12 08:31:38;;;;;;;20.53;9.47;;;6.20;99.90;;;;;;4985740;28;22192;-55
2023/12/12 08:34:05;;;;;;;26.23;10.20;;;6.20;99.90;;;;;;4995566;28;20291;-54
2023/12/12 08:36:32;;;;;;;25.30;10.33;;;6.20;99.90;;;;;;4997381;28;20220;-60
2023/12/12 08:38:59;;;;;;;21.00;9.10;;;6.20;99.90;;;;;;4998776;28;20718;-56
2023/12/12 08:41:30;;;;;;;22.03;9.87;;;6.20;99.90;;;;;;5000339;28;20201;-61
2023/12/12 08:43:57;;;;;;;25.80;10.73;;;6.20;99.90;;;;;;4964360;28;20678;-55
2023/12/12 08:46:26;;;;;;;23.43;10.77;;;6.20;99.90;;;;;;4998065;28;20197;-60
2023/12/12 08:48:55;;;;;;;24.77;9.73;;;6.30;99.90;;;;;;4992911;28;20820;-52
2023/12/12 08:51:22;;;;;;;25.73;10.60;;;6.30;99.90;;;;;;5000452;28;20223;-59
2023/12/12 08:53:49;;;;;;;28.33;11.50;;;6.30;99.90;;;;;;5001993;28;20257;-53
2023/12/12 08:56:17;;;;;;;26.07;10.23;;;6.30;99.90;;;;;;4999474;28;20198;-56
2023/12/12 08:58:46;;;;;;;29.73;11.67;;;6.30;99.90;;;;;;4965635;28;20213;-52
2023/12/12 09:01:14;;;;;;;32.03;11.67;;;6.40;99.90;;;;;;5001269;28;20212;-56
2023/12/12 09:03:41;;;;;;;22.97;10.93;;;6.40;99.90;;;;;;4985015;28;20358;-57
2023/12/12 09:06:09;;;;;;;28.63;10.90;;;6.30;99.90;;;;;;4992091;28;20208;-53
2023/12/12 09:08:36;;;;;;;32.53;11.53;;;6.40;99.90;;;;;;4997082;28;20229;-52
2023/12/12 09:11:03;;;;;;;24.27;11.33;;;6.40;99.90;;;;;;5003710;28;20204;-55
2023/12/12 09:13:30;;;;;;;28.00;11.07;;;6.40;99.90;;;;;;4998753;28;20784;-60
2023/12/12 09:15:58;;;;;;;27.07;12.67;;;6.40;99.90;;;;;;4968320;28;20203;-53
2023/12/12 09:18:25;;;;;;;28.17;11.17;;;6.40;99.90;;;;;;4991512;28;20298;-60
2023/12/12 09:20:53;;;;;;;29.30;11.43;;;6.40;99.90;;;;;;4989521;28;22542;-53
2023/12/12 09:23:20;;;;;;;30.47;11.10;;;6.40;99.90;;;;;;5004195;28;20200;-60
2023/12/12 09:25:47;;;;;;;35.17;11.77;;;6.40;99.90;;;;;;4997833;28;20205;-53
2023/12/12 09:28:14;;;;;;;29.83;12.23;;;6.40;99.90;;;;;;5002899;28;20209;-55
2023/12/12 09:30:41;;;;;;;33.87;12.40;;;6.40;99.90;;;;;;4966683;28;20229;-54
2023/12/12 09:33:09;;;;;;;29.93;11.10;;;6.40;99.90;;;;;;5004286;28;20200;-57
2023/12/12 09:35:36;;;;;;;30.53;11.63;;;6.40;99.90;;;;;;4979864;28;20861;-57
2023/12/12 09:38:03;;;;;;;31.90;11.73;;;6.30;99.90;;;;;;5000695;28;20224;-54
2023/12/12 09:40:30;;;;;;;34.13;11.23;;;6.40;99.90;;;;;;4998132;28;20748;-60
2023/12/12 09:42:58;;;;;;;34.50;12.13;;;6.40;99.90;;;;;;5001000;28;20188;-54
2023/12/12 09:45:26;;;;;;;28.30;12.03;;;6.40;99.90;;;;;;4999311;28;20205;-61
2023/12/12 09:47:55;;;;;;;31.70;11.03;;;6.50;99.90;;;;;;4968675;28;20314;-54
2023/12/12 09:50:23;;;;;;;25.77;10.70;;;6.50;99.90;;;;;;4991922;28;20711;-60
2023/12/12 09:52:51;;;;;;;29.90;10.10;;;6.50;99.90;;;;;;4998070;28;20255;-56
2023/12/12 09:55:22;;;;;;;32.20;10.87;;;6.50;99.90;;;;;;5002622;28;20259;-61
2023/12/12 09:57:49;;;;;;;28.13;11.90;;;6.50;99.90;;;;;;4997729;28;20222;-53
2023/12/12 10:00:18;;;;;;;26.83;11.30;;;6.60;99.90;;;;;;5005590;28;20305;-58
2023/12/12 10:02:46;;;;;;;27.87;11.10;;;6.60;99.90;;;;;;4966950;28;20197;-56
2023/12/12 10:05:14;;;;;;;27.17;10.10;;;6.60;99.90;;;;;;4994673;28;20213;-51
2023/12/12 10:07:45;;;;;;;26.70;10.20;;;6.60;99.90;;;;;;4987188;28;20214;-55
2023/12/12 10:10:14;;;;;;;26.30;10.50;;;6.60;99.90;;;;;;4998682;28;20221;-52
2023/12/12 10:12:42;;;;;;;24.97;10.03;;;6.60;99.90;;;;;;4995089;28;20193;-55
2023/12/12 10:15:22;;;;;;;25.40;10.70;;;6.60;99.90;;;;;;5000683;28;20201;-54
2023/12/12 10:17:49;;;;;;;24.43;9.93;;;6.60;99.90;;;;;;4972007;28;21886;-51
2023/12/12 10:20:25;;;;;;;20.37;9.07;;;6.60;99.90;;;;;;4990142;28;20209;-52
2023/12/12 10:22:54;;;;;;;19.07;8.90;;;6.60;99.90;;;;;;4988627;28;20284;-60
2023/12/12 10:25:22;;;;;;;17.37;7.50;;;6.60;99.90;;;;;;5000777;28;20209;-52
2023/12/12 10:27:52;;;;;;;17.80;7.20;;;6.60;99.90;;;;;;5001181;28;20213;-62
2023/12/12 10:30:19;;;;;;;16.03;7.53;;;6.50;99.90;;;;;;4999880;28;20216;-57
2023/12/12 10:32:46;;;;;;;10.67;5.67;;;6.50;99.90;;;;;;4995903;28;20295;-63
2023/12/12 10:35:14;;;;;;;13.83;5.93;;;6.50;99.90;;;;;;4969372;28;20268;-57
2023/12/12 10:37:40;;;;;;;10.00;5.33;;;6.50;99.90;;;;;;4992903;28;20228;-52
2023/12/12 10:40:16;;;;;;;10.63;5.43;;;6.60;99.90;;;;;;4998198;28;20185;-52
2023/12/12 10:42:44;;;;;;;14.87;6.57;;;6.60;99.90;;;;;;5001364;28;20193;-53
2023/12/12 10:45:12;;;;;;;10.50;5.43;;;6.70;99.90;;;;;;4996875;28;20188;-53
2023/12/12 10:47:43;;;;;;;7.60;4.57;;;6.70;99.90;;;;;;5000485;28;20235;-51
2023/12/12 10:50:14;;;;;;;7.83;4.87;;;6.70;99.90;;;;;;4963805;28;20812;-58
2023/12/12 10:52:43;;;;;;;7.40;4.27;;;6.70;99.90;;;;;;4999248;28;20672;-50
2023/12/12 10:55:11;;;;;;;5.97;3.70;;;6.70;99.90;;;;;;4989276;28;20889;-55
2023/12/12 10:57:42;;;;;;;6.93;4.00;;;6.80;99.90;;;;;;5001052;28;20220;-50
2023/12/12 11:00:14;;;;;;;5.43;4.07;;;6.80;99.90;;;;;;4996512;28;20851;-53
2023/12/12 11:02:41;;;;;;;5.90;3.90;;;6.80;99.90;;;;;;5000239;28;20739;-53
2023/12/12 11:05:11;;;;;;;5.20;3.70;;;6.80;99.90;;;;;;4966576;28;20219;-50
2023/12/12 11:07:38;;;;;;;7.37;4.73;;;6.80;99.90;;;;;;4996057;28;20234;-60
2023/12/12 11:10:08;;;;;;;10.43;4.33;;;6.80;99.90;;;;;;4994280;28;20216;-50
2023/12/12 11:12:41;;;;;;;7.07;3.83;;;6.80;99.90;;;;;;5000893;28;20702;-61
2023/12/12 11:15:11;;;;;;;5.83;4.07;;;6.80;99.90;;;;;;5001291;28;20204;-54
2023/12/12 11:17:39;;;;;;;5.83;4.37;;;6.80;99.90;;;;;;4993602;28;20216;-59
2023/12/12 11:20:13;;;;;;;7.00;4.47;;;6.70;99.90;;;;;;4997286;28;20247;-50
2023/12/12 11:22:41;;;;;;;7.87;4.90;;;6.80;99.90;;;;;;4960766;28;20694;-59
2023/12/12 11:25:10;;;;;;;8.43;5.07;;;6.80;99.90;;;;;;4992732;28;20290;-52
2023/12/12 11:27:41;;;;;;;7.90;4.67;;;6.70;99.90;;;;;;5001271;28;20221;-59
2023/12/12 11:30:10;;;;;;;6.00;4.80;;;6.60;99.90;;;;;;4992036;28;20310;-53
2023/12/12 11:32:37;;;;;;;8.07;5.13;;;6.60;99.90;;;;;;5002486;28;20737;-59
2023/12/12 11:35:07;;;;;;;8.00;4.83;;;6.70;99.90;;;;;;5000941;28;20203;-53
2023/12/12 11:37:43;;;;;;;8.03;5.57;;;6.70;99.90;;;;;;4974997;28;20749;-59
2023/12/12 11:40:11;;;;;;;8.17;5.97;;;6.70;99.90;;;;;;5001955;28;20283;-56
2023/12/12 11:42:42;;;;;;;8.23;5.93;;;6.70;99.90;;;;;;4988644;28;20258;-60
2023/12/12 11:45:10;;;;;;;10.20;6.17;;;6.60;99.90;;;;;;4993227;28;20244;-50
2023/12/12 11:47:37;;;;;;;10.73;6.70;;;6.60;99.90;;;;;;5002328;28;20216;-59
2023/12/12 11:50:35;;;;;;;8.63;6.10;;;6.70;99.90;;;;;;5001539;28;20209;-58
2023/12/12 11:53:02;;;;;;;9.80;5.93;;;6.70;99.90;;;;;;4980094;28;20296;-55
2023/12/12 11:55:32;;;;;;;8.37;6.17;;;6.60;99.90;;;;;;5004654;28;20195;-51
2023/12/12 11:58:01;;;;;;;9.30;5.87;;;6.60;99.90;;;;;;4992555;28;20967;-54
2023/12/12 12:00:32;;;;;;;12.87;7.23;;;6.70;99.90;;;;;;4996083;28;20200;-58
2023/12/12 12:03:00;;;;;;;9.03;6.50;;;6.70;99.90;;;;;;5001219;28;20193;-52
2023/12/12 12:05:27;;;;;;;9.40;6.30;;;6.70;99.90;;;;;;5003455;28;20200;-52
2023/12/12 12:07:55;;;;;;;9.90;7.37;;;6.70;99.90;;;;;;4961479;28;20901;-53
2023/12/12 12:10:22;;;;;;;11.50;7.17;;;6.70;99.90;;;;;;4999427;28;20228;-52
2023/12/12 12:12:53;;;;;;;8.60;7.00;;;6.70;99.90;;;;;;4991779;28;20205;-61
2023/12/12 12:15:21;;;;;;;13.57;7.67;;;6.70;99.90;;;;;;5003137;28;20267;-51
2023/12/12 12:17:49;;;;;;;12.57;7.70;;;6.70;99.90;;;;;;4982947;28;20995;-56
2023/12/12 12:20:16;;;;;;;10.83;7.47;;;6.70;99.90;;;;;;5003150;28;20193;-59
2023/12/12 12:22:43;;;;;;;12.10;7.93;;;6.70;99.90;;;;;;4970931;28;20212;-60
2023/12/12 12:25:10;;;;;;;13.20;7.77;;;6.70;99.90;;;;;;5001024;28;20278;-59
2023/12/12 12:27:49;;;;;;;17.90;9.57;;;6.70;99.90;;;;;;4991011;28;20291;-60
2023/12/12 12:30:17;;;;;;;15.27;9.03;;;6.80;99.90;;;;;;4991708;28;20239;-57
2023/12/12 12:33:02;;;;;;;16.07;9.03;;;6.80;99.90;;;;;;4990242;28;20201;-60
2023/12/12 12:35:29;;;;;;;14.13;8.47;;;6.80;99.90;;;;;;4998190;28;20200;-57
2023/12/12 12:37:57;;;;;;;15.03;8.77;;;6.70;99.90;;;;;;5002160;28;20225;-60
2023/12/12 12:40:35;;;;;;;17.00;9.60;;;6.80;99.90;;;;;;4966056;28;20208;-55
2023/12/12 12:43:04;;;;;;;15.73;10.23;;;6.80;99.90;;;;;;4999309;28;20572;-60